createdAt,value
2018-10-15T00:01:31.812Z,10.98
2018-10-15T00:04:00.038Z,10.87
2018-10-15T00:06:28.335Z,10.93
2018-10-15T00:08:56.596Z,10.85
2018-10-15T00:11:24.971Z,10.89
2018-10-15T00:13:53.098Z,10.91
2018-10-15T00:16:21.289Z,10.92
2018-10-15T00:18:49.458Z,10.88
2018-10-15T00:21:17.643Z,11.04
2018-10-15T00:23:45.795Z,11.00
2018-10-15T00:26:14.090Z,11.04
2018-10-15T00:28:42.239Z,10.99
2018-10-15T00:31:10.518Z,11.05
2018-10-15T00:33:38.789Z,10.88
2018-10-15T00:36:07.021Z,10.79
2018-10-15T00:38:35.164Z,10.57
2018-10-15T00:41:03.532Z,10.41
2018-10-15T00:43:31.692Z,10.33
2018-10-15T00:46:00.077Z,10.14
2018-10-15T00:48:28.286Z,10.01
2018-10-15T00:50:56.425Z,10.03
2018-10-15T00:53:24.636Z,10.04
2018-10-15T00:55:52.812Z,10.12
2018-10-15T00:58:20.952Z,10.11
2018-10-15T01:00:49.092Z,10.06
2018-10-15T01:03:17.326Z,10.02
2018-10-15T01:05:45.639Z,9.98
2018-10-15T01:08:13.932Z,9.90
2018-10-15T01:10:42.056Z,9.89
2018-10-15T01:13:10.189Z,10.23
2018-10-15T01:15:38.433Z,10.28
2018-10-15T01:18:06.707Z,10.36
2018-10-15T01:20:34.935Z,10.34
2018-10-15T01:23:03.188Z,10.23
2018-10-15T01:25:31.510Z,10.23
2018-10-15T01:27:59.691Z,10.23
2018-10-15T01:30:27.840Z,10.18
2018-10-15T01:32:56.091Z,10.13
2018-10-15T01:35:24.224Z,10.08
2018-10-15T01:37:52.384Z,9.91
2018-10-15T01:40:20.548Z,10.06
2018-10-15T01:42:48.774Z,9.92
2018-10-15T01:45:16.943Z,9.77
2018-10-15T01:47:45.099Z,9.73
2018-10-15T01:50:13.472Z,9.59
2018-10-15T01:52:41.651Z,9.37
2018-10-15T01:55:09.901Z,9.29
2018-10-15T01:57:38.200Z,9.34
2018-10-15T02:00:07.334Z,9.35
2018-10-15T02:02:35.570Z,9.28
2018-10-15T02:05:03.769Z,9.33
2018-10-15T02:07:31.891Z,9.34
2018-10-15T02:10:00.053Z,9.42
2018-10-15T02:12:28.285Z,9.50
2018-10-15T02:14:56.398Z,9.47
2018-10-15T02:17:24.539Z,9.38
2018-10-15T02:19:52.735Z,9.28
2018-10-15T02:22:20.881Z,9.25
2018-10-15T02:24:49.027Z,9.20
2018-10-15T02:27:17.313Z,9.04
2018-10-15T02:29:45.501Z,8.93
2018-10-15T02:32:13.664Z,8.95
2018-10-15T02:34:42.176Z,8.96
2018-10-15T02:37:11.156Z,9.01
2018-10-15T02:39:39.292Z,9.03
2018-10-15T02:42:07.466Z,9.06
2018-10-15T02:44:35.623Z,9.07
2018-10-15T02:47:03.955Z,8.88
2018-10-15T02:49:32.091Z,8.93
2018-10-15T02:52:00.336Z,9.07
2018-10-15T02:54:28.633Z,9.14
2018-10-15T02:56:57.125Z,9.09
2018-10-15T02:59:25.272Z,9.09
2018-10-15T03:01:53.395Z,9.07
2018-10-15T03:04:21.647Z,8.93
2018-10-15T03:06:49.870Z,8.82
2018-10-15T03:09:18.215Z,8.65
2018-10-15T03:11:46.507Z,8.63
2018-10-15T03:14:14.692Z,8.54
2018-10-15T03:16:42.848Z,8.46
2018-10-15T03:19:11.039Z,8.43
2018-10-15T03:21:39.324Z,8.65
2018-10-15T03:24:07.505Z,8.90
2018-10-15T03:26:35.721Z,9.01
2018-10-15T03:29:04.047Z,8.96
2018-10-15T03:31:32.226Z,8.73
2018-10-15T03:34:00.404Z,8.71
2018-10-15T03:36:28.554Z,8.75
2018-10-15T03:38:56.844Z,8.57
2018-10-15T03:41:25.056Z,8.66
2018-10-15T03:43:53.442Z,8.64
2018-10-15T03:46:21.658Z,8.62
2018-10-15T03:48:49.895Z,8.63
2018-10-15T03:51:18.123Z,8.55
2018-10-15T03:53:46.515Z,8.42
2018-10-15T03:56:14.752Z,8.42
2018-10-15T03:58:42.956Z,8.39
2018-10-15T04:01:11.249Z,8.36
2018-10-15T04:03:39.423Z,8.27
2018-10-15T04:06:07.587Z,8.28
2018-10-15T04:08:36.142Z,8.36
2018-10-15T04:11:04.276Z,8.47
2018-10-15T04:13:32.491Z,8.39
2018-10-15T04:16:00.749Z,8.36
2018-10-15T04:18:28.883Z,8.25
2018-10-15T04:20:57.014Z,8.26
2018-10-15T04:23:25.219Z,8.04
2018-10-15T04:25:53.395Z,7.94
2018-10-15T04:28:21.632Z,8.02
2018-10-15T04:30:49.789Z,8.13
2018-10-15T04:33:17.931Z,8.12
2018-10-15T04:35:46.078Z,8.20
2018-10-15T04:38:14.323Z,8.15
2018-10-15T04:40:42.712Z,8.35
2018-10-15T04:43:10.925Z,8.31
2018-10-15T04:45:39.184Z,8.27
2018-10-15T04:48:07.547Z,8.19
2018-10-15T04:50:35.667Z,8.32
2018-10-15T04:53:03.919Z,8.25
2018-10-15T04:55:32.116Z,8.11
2018-10-15T04:58:00.431Z,8.05
2018-10-15T05:00:28.685Z,8.03
2018-10-15T05:02:56.707Z,8.08
2018-10-15T05:05:24.993Z,7.91
2018-10-15T05:07:53.203Z,7.86
2018-10-15T05:10:21.396Z,7.92
2018-10-15T05:12:49.523Z,8.08
2018-10-15T05:15:17.675Z,8.23
2018-10-15T05:17:45.847Z,8.26
2018-10-15T05:20:14.063Z,8.32
2018-10-15T05:22:42.276Z,8.33
2018-10-15T05:25:10.516Z,8.26
2018-10-15T05:27:38.668Z,8.22
2018-10-15T05:30:07.727Z,8.15
2018-10-15T05:32:35.999Z,8.05
2018-10-15T05:35:05.063Z,7.92
2018-10-15T05:37:33.268Z,7.80
2018-10-15T05:40:01.423Z,7.72
2018-10-15T05:42:29.657Z,7.81
2018-10-15T05:44:57.841Z,7.87
2018-10-15T05:47:25.983Z,8.05
2018-10-15T05:49:54.140Z,8.09
2018-10-15T05:52:22.308Z,8.18
2018-10-15T05:54:50.564Z,8.14
2018-10-15T05:57:19.339Z,8.11
2018-10-15T05:59:47.532Z,7.93
2018-10-15T06:02:15.676Z,7.91
2018-10-15T06:04:43.864Z,7.89
2018-10-15T06:07:12.083Z,7.96
2018-10-15T06:09:40.291Z,8.00
2018-10-15T06:12:08.621Z,8.04
2018-10-15T06:14:36.767Z,8.13
2018-10-15T06:17:05.155Z,8.08
2018-10-15T06:19:33.304Z,8.06
2018-10-15T06:22:01.573Z,8.10
2018-10-15T06:24:29.848Z,8.22
2018-10-15T06:26:58.097Z,8.33
2018-10-15T06:29:26.225Z,8.35
2018-10-15T06:31:54.476Z,8.47
2018-10-15T06:34:22.885Z,8.46
2018-10-15T06:36:51.297Z,8.45
2018-10-15T06:39:19.558Z,8.45
2018-10-15T06:41:47.587Z,8.45
2018-10-15T06:44:15.828Z,8.53
2018-10-15T06:46:43.948Z,8.63
2018-10-15T06:49:12.125Z,8.74
2018-10-15T06:51:40.311Z,8.83
2018-10-15T06:54:08.497Z,8.97
2018-10-15T06:56:36.711Z,9.12
2018-10-15T06:59:04.899Z,9.29
2018-10-15T07:01:33.126Z,9.38
2018-10-15T07:04:01.315Z,9.45
2018-10-15T07:06:29.743Z,9.54
2018-10-15T07:09:07.571Z,9.59
2018-10-15T07:11:35.642Z,9.61
2018-10-15T07:14:04.040Z,9.67
2018-10-15T07:16:32.104Z,9.87
2018-10-15T07:19:00.567Z,10.06
2018-10-15T07:21:28.796Z,10.26
2018-10-15T07:23:57.027Z,10.48
2018-10-15T07:26:25.219Z,10.59
2018-10-15T07:28:53.653Z,10.79
2018-10-15T07:31:21.841Z,10.95
2018-10-15T07:33:50.124Z,11.16
2018-10-15T07:36:18.338Z,11.03
2018-10-15T07:38:46.472Z,11.15
2018-10-15T07:41:14.855Z,11.19
2018-10-15T07:43:43.040Z,11.36
2018-10-15T07:46:11.237Z,11.63
2018-10-15T07:48:39.606Z,11.85
2018-10-15T07:51:07.748Z,11.71
2018-10-15T07:53:35.947Z,11.55
2018-10-15T07:56:04.175Z,11.56
2018-10-15T07:58:32.294Z,11.66
2018-10-15T08:01:00.458Z,11.75
2018-10-15T08:03:28.580Z,11.93
2018-10-15T08:05:56.731Z,12.09
2018-10-15T08:08:25.010Z,12.45
2018-10-15T08:10:53.088Z,12.55
2018-10-15T08:13:21.256Z,12.64
2018-10-15T08:15:49.439Z,12.77
2018-10-15T08:18:17.564Z,12.87
2018-10-15T08:20:45.830Z,13.08
2018-10-15T08:23:13.894Z,13.28
2018-10-15T08:25:42.094Z,13.40
2018-10-15T08:28:10.353Z,13.59
2018-10-15T08:30:38.451Z,13.72
2018-10-15T08:33:06.757Z,13.91
2018-10-15T08:35:35.224Z,14.08
2018-10-15T08:38:03.651Z,14.25
2018-10-15T08:40:32.264Z,14.53
2018-10-15T08:43:00.755Z,14.65
2018-10-15T08:45:29.015Z,14.87
2018-10-15T08:47:57.195Z,14.86
2018-10-15T08:50:26.067Z,14.98
2018-10-15T08:52:54.229Z,14.89
2018-10-15T08:55:22.376Z,14.96
2018-10-15T08:57:50.918Z,15.07
2018-10-15T09:00:20.969Z,15.25
2018-10-15T09:02:49.546Z,15.42
2018-10-15T09:05:18.047Z,15.68
2018-10-15T09:07:47.094Z,15.64
2018-10-15T09:10:16.250Z,15.92
2018-10-15T09:12:44.684Z,16.09
2018-10-15T09:15:16.265Z,16.14
2018-10-15T09:17:44.470Z,16.22
2018-10-15T09:20:12.599Z,16.24
2018-10-15T09:22:41.992Z,16.33
2018-10-15T09:25:12.197Z,16.34
2018-10-15T09:27:40.456Z,16.44
2018-10-15T09:30:10.660Z,16.53
2018-10-15T09:32:39.238Z,16.67
2018-10-15T09:35:08.216Z,16.81
2018-10-15T09:37:36.551Z,16.97
2018-10-15T09:40:05.025Z,17.11
2018-10-15T09:42:33.160Z,17.22
2018-10-15T09:45:01.445Z,17.32
2018-10-15T09:47:29.816Z,17.36
2018-10-15T09:49:58.232Z,17.54
2018-10-15T09:52:26.368Z,17.59
2018-10-15T09:54:54.782Z,17.66
2018-10-15T09:57:23.545Z,17.74
2018-10-15T09:59:51.775Z,18.00
2018-10-15T10:02:19.996Z,18.08
2018-10-15T10:04:48.203Z,18.01
2018-10-15T10:07:16.413Z,17.95
2018-10-15T10:09:44.492Z,17.87
2018-10-15T10:12:12.744Z,18.11
2018-10-15T10:14:41.319Z,18.29
2018-10-15T10:17:09.514Z,18.33
2018-10-15T10:19:37.892Z,18.43
2018-10-15T10:22:06.228Z,18.44
2018-10-15T10:24:34.590Z,18.46
2018-10-15T10:27:02.927Z,18.46
2018-10-15T10:29:31.063Z,18.66
2018-10-15T10:31:59.406Z,18.75
2018-10-15T10:36:05.589Z,18.89
2018-10-15T10:38:38.480Z,18.91
2018-10-15T10:41:06.801Z,19.07
2018-10-15T10:43:35.140Z,19.30
2018-10-15T10:46:03.921Z,19.09
2018-10-15T10:48:32.398Z,19.27
2018-10-15T10:51:00.797Z,19.42
2018-10-15T10:53:29.542Z,19.35
2018-10-15T10:55:57.844Z,19.46
2018-10-15T10:58:26.381Z,19.49
2018-10-15T11:00:54.605Z,19.59
2018-10-15T11:03:23.037Z,19.85
2018-10-15T11:05:51.694Z,19.72
2018-10-15T11:08:20.521Z,19.67
2018-10-15T11:10:48.936Z,19.80
2018-10-15T11:13:17.339Z,19.77
2018-10-15T11:15:45.815Z,20.02
2018-10-15T11:18:14.118Z,19.95
2018-10-15T11:20:42.532Z,19.82
2018-10-15T11:23:10.968Z,19.91
2018-10-15T11:25:39.200Z,19.98
2018-10-15T11:28:07.392Z,19.77
2018-10-15T11:30:35.726Z,19.94
2018-10-15T11:33:03.992Z,20.24
2018-10-15T11:35:32.434Z,20.18
2018-10-15T11:38:00.889Z,20.21
2018-10-15T11:40:29.188Z,20.20
2018-10-15T11:42:57.725Z,20.25
2018-10-15T11:45:26.119Z,20.32
2018-10-15T11:47:54.244Z,20.25
2018-10-15T11:50:22.632Z,20.42
2018-10-15T11:52:51.102Z,20.37
2018-10-15T11:55:19.500Z,20.65
2018-10-15T11:57:47.892Z,20.73
2018-10-15T12:00:17.051Z,20.76
2018-10-15T12:02:46.565Z,20.63
2018-10-15T12:05:14.796Z,20.58
2018-10-15T12:07:43.025Z,21.04
2018-10-15T12:10:12.644Z,21.18
2018-10-15T12:12:41.145Z,20.93
2018-10-15T12:15:10.673Z,20.92
2018-10-15T12:17:39.672Z,21.04
2018-10-15T12:20:09.172Z,21.07
2018-10-15T12:22:37.718Z,21.05
2018-10-15T12:25:07.358Z,21.16
2018-10-15T12:27:35.961Z,21.24
2018-10-15T12:30:04.380Z,21.30
2018-10-15T12:32:32.771Z,21.46
2018-10-15T12:35:01.031Z,21.33
2018-10-15T12:37:29.397Z,21.41
2018-10-15T12:39:57.849Z,21.64
2018-10-15T12:42:26.255Z,21.57
2018-10-15T12:44:54.759Z,21.67
2018-10-15T12:47:23.343Z,21.97
2018-10-15T12:49:51.755Z,21.92
2018-10-15T12:52:20.222Z,21.95
2018-10-15T12:54:48.680Z,22.02
2018-10-15T12:57:17.220Z,22.02
2018-10-15T12:59:45.546Z,21.99
2018-10-15T13:02:13.819Z,21.90
2018-10-15T13:04:42.391Z,22.01
2018-10-15T13:07:10.773Z,22.07
2018-10-15T13:09:39.255Z,22.16
2018-10-15T13:12:07.656Z,22.02
2018-10-15T13:14:36.124Z,22.18
2018-10-15T13:17:04.668Z,22.22
2018-10-15T13:19:33.688Z,22.25
2018-10-15T13:22:02.194Z,22.30
2018-10-15T13:24:30.578Z,22.26
2018-10-15T13:26:58.723Z,22.25
2018-10-15T13:29:26.950Z,22.43
2018-10-15T13:31:55.490Z,22.66
2018-10-15T13:34:24.012Z,22.55
2018-10-15T13:36:52.387Z,22.53
2018-10-15T13:39:20.815Z,22.50
2018-10-15T13:41:49.242Z,22.51
2018-10-15T13:44:17.497Z,22.55
2018-10-15T13:46:45.772Z,22.65
2018-10-15T13:49:13.961Z,22.65
2018-10-15T13:51:42.397Z,22.77
2018-10-15T13:54:10.728Z,22.81
2018-10-15T13:56:39.048Z,22.91
2018-10-15T13:59:07.435Z,22.79
2018-10-15T14:01:35.804Z,22.84
2018-10-15T14:04:05.458Z,22.81
2018-10-15T14:06:34.549Z,22.80
2018-10-15T14:09:03.044Z,22.76
2018-10-15T14:11:31.424Z,22.70
2018-10-15T14:13:59.579Z,22.77
2018-10-15T14:16:28.084Z,22.74
2018-10-15T14:18:56.312Z,22.79
2018-10-15T14:21:24.896Z,22.80
2018-10-15T14:23:53.191Z,22.74
2018-10-15T14:26:21.379Z,22.80
2018-10-15T14:28:50.076Z,22.85
2018-10-15T14:31:18.518Z,22.78
2018-10-15T14:33:46.951Z,22.88
2018-10-15T14:36:15.239Z,22.93
2018-10-15T14:38:43.651Z,22.93
2018-10-15T14:41:11.861Z,22.88
2018-10-15T14:43:40.313Z,22.82
2018-10-15T14:46:08.727Z,22.76
2018-10-15T14:48:37.160Z,22.76
2018-10-15T14:51:06.872Z,22.72
2018-10-15T14:53:36.214Z,22.74
2018-10-15T14:56:04.722Z,22.66
2018-10-15T14:58:33.109Z,22.68
2018-10-15T15:01:01.581Z,22.53
2018-10-15T15:03:29.891Z,22.52
2018-10-15T15:05:58.244Z,22.48
2018-10-15T15:08:26.660Z,22.54
2018-10-15T15:11:06.446Z,22.55
2018-10-15T15:13:45.965Z,22.54
2018-10-15T15:16:14.091Z,22.50
2018-10-15T15:18:42.354Z,22.44
2018-10-15T15:21:10.502Z,22.41
2018-10-15T15:23:38.906Z,22.40
2018-10-15T15:26:07.277Z,22.33
2018-10-15T15:28:35.543Z,22.28
2018-10-15T15:31:03.927Z,22.29
2018-10-15T15:33:32.660Z,22.27
2018-10-15T15:36:01.015Z,22.24
2018-10-15T15:38:29.274Z,22.17
2018-10-15T15:40:58.100Z,22.08
2018-10-15T15:43:26.492Z,22.04
2018-10-15T15:45:54.836Z,21.98
2018-10-15T15:48:23.003Z,21.97
2018-10-15T15:50:51.354Z,21.86
2018-10-15T15:53:19.543Z,21.79
2018-10-15T15:55:47.964Z,21.70
2018-10-15T15:58:16.408Z,21.64
2018-10-15T16:00:44.786Z,21.50
2018-10-15T16:03:13.304Z,21.53
2018-10-15T16:05:41.819Z,21.50
2018-10-15T16:08:10.277Z,21.38
2018-10-15T16:10:38.707Z,21.36
2018-10-15T16:13:06.997Z,21.17
2018-10-15T16:15:35.326Z,20.90
2018-10-15T16:18:03.660Z,20.76
2018-10-15T16:20:31.928Z,20.60
2018-10-15T16:23:00.211Z,20.42
2018-10-15T16:25:28.685Z,20.28
2018-10-15T16:27:57.103Z,20.30
2018-10-15T16:30:25.411Z,20.17
2018-10-15T16:32:53.811Z,20.07
2018-10-15T16:35:21.956Z,19.89
2018-10-15T16:37:50.420Z,19.82
2018-10-15T16:40:18.764Z,19.73
2018-10-15T16:42:47.518Z,19.65
2018-10-15T16:45:16.010Z,19.43
2018-10-15T16:47:44.474Z,19.25
2018-10-15T16:50:14.421Z,19.08
2018-10-15T16:52:49.149Z,18.87
2018-10-15T16:55:17.304Z,18.59
2018-10-15T16:57:46.023Z,18.42
2018-10-15T17:00:14.936Z,18.23
2018-10-15T17:02:43.460Z,18.08
2018-10-15T17:05:13.058Z,17.92
2018-10-15T17:07:41.552Z,17.77
2018-10-15T17:10:12.096Z,17.68
2018-10-15T17:12:40.793Z,17.64
2018-10-15T17:15:11.640Z,17.65
2018-10-15T17:17:40.667Z,17.61
2018-10-15T17:20:09.646Z,17.60
2018-10-15T17:22:37.868Z,17.55
2018-10-15T17:25:06.599Z,17.51
2018-10-15T17:27:34.864Z,17.51
2018-10-15T17:30:03.202Z,17.46
2018-10-15T17:32:31.520Z,17.36
2018-10-15T17:34:59.724Z,17.31
2018-10-15T17:37:28.058Z,17.23
2018-10-15T17:39:56.454Z,17.07
2018-10-15T17:42:24.963Z,16.94
2018-10-15T17:44:53.447Z,16.85
2018-10-15T17:47:21.817Z,16.75
2018-10-15T17:49:50.233Z,16.71
2018-10-15T17:52:18.781Z,16.68
2018-10-15T17:54:47.064Z,16.57
2018-10-15T17:57:15.492Z,16.38
2018-10-15T17:59:43.751Z,16.22
2018-10-15T18:02:12.547Z,15.94
2018-10-15T18:04:40.969Z,15.97
2018-10-15T18:07:09.357Z,15.80
2018-10-15T18:09:37.758Z,15.66
2018-10-15T18:12:06.381Z,15.64
2018-10-15T18:14:34.676Z,15.55
2018-10-15T18:17:03.154Z,15.47
2018-10-15T18:19:31.501Z,15.38
2018-10-15T18:21:59.877Z,15.22
2018-10-15T18:24:28.160Z,15.15
2018-10-15T18:26:56.360Z,15.10
2018-10-15T18:29:24.676Z,15.01
2018-10-15T18:31:52.890Z,14.92
2018-10-15T18:34:21.127Z,14.76
2018-10-15T18:36:49.559Z,14.77
2018-10-15T18:39:17.792Z,14.77
2018-10-15T18:41:46.190Z,14.72
2018-10-15T18:44:14.301Z,14.65
2018-10-15T18:46:42.549Z,14.52
2018-10-15T18:49:11.087Z,14.48
2018-10-15T18:51:39.367Z,14.40
2018-10-15T18:54:07.968Z,14.26
2018-10-15T18:56:36.219Z,14.25
2018-10-15T18:59:04.399Z,14.19
2018-10-15T19:01:32.524Z,14.26
2018-10-15T19:04:00.653Z,14.39
2018-10-15T19:06:28.821Z,14.10
2018-10-15T19:08:57.015Z,13.94
2018-10-15T19:11:25.165Z,13.78
2018-10-15T19:13:53.479Z,13.74
2018-10-15T19:16:21.714Z,13.78
2018-10-15T19:18:49.999Z,13.67
2018-10-15T19:21:18.153Z,13.58
2018-10-15T19:23:46.288Z,13.50
2018-10-15T19:26:14.507Z,13.38
2018-10-15T19:28:42.566Z,13.21
2018-10-15T19:31:10.791Z,13.09
2018-10-15T19:33:39.067Z,13.07
2018-10-15T19:36:07.594Z,13.01
2018-10-15T19:38:35.810Z,12.96
2018-10-15T19:41:04.270Z,12.89
2018-10-15T19:43:32.576Z,12.80
2018-10-15T19:46:00.751Z,12.67
2018-10-15T19:48:28.894Z,12.70
2018-10-15T19:50:57.139Z,12.65
2018-10-15T19:53:25.411Z,12.57
2018-10-15T19:55:53.546Z,12.43
2018-10-15T19:58:21.969Z,12.35
2018-10-15T20:00:50.131Z,12.38
2018-10-15T20:03:18.440Z,12.35
2018-10-15T20:05:47.368Z,12.41
2018-10-15T20:08:15.528Z,12.32
2018-10-15T20:10:43.828Z,12.33
2018-10-15T20:13:12.108Z,12.28
2018-10-15T20:15:40.362Z,12.23
2018-10-15T20:18:08.656Z,12.14
2018-10-15T20:20:36.767Z,12.05
2018-10-15T20:23:05.248Z,12.03
2018-10-15T20:25:33.529Z,12.02
2018-10-15T20:28:01.758Z,11.98
2018-10-15T20:30:29.914Z,11.97
2018-10-15T20:32:58.153Z,11.99
2018-10-15T20:35:26.446Z,11.96
2018-10-15T20:37:54.771Z,11.94
2018-10-15T20:40:23.001Z,11.79
2018-10-15T20:42:51.209Z,11.79
2018-10-15T20:45:19.398Z,11.76
2018-10-15T20:47:47.715Z,11.74
2018-10-15T20:50:15.991Z,11.73
2018-10-15T20:52:44.247Z,11.63
2018-10-15T20:55:12.412Z,11.60
2018-10-15T20:57:41.302Z,11.58
2018-10-15T21:00:10.803Z,11.52
2018-10-15T21:02:39.496Z,11.39
2018-10-15T21:05:07.892Z,11.39
2018-10-15T21:07:36.140Z,11.44
2018-10-15T21:10:04.375Z,11.44
2018-10-15T21:12:32.607Z,11.48
2018-10-15T21:15:00.728Z,11.41
2018-10-15T21:17:28.981Z,11.39
2018-10-15T21:19:57.278Z,11.26
2018-10-15T21:22:25.561Z,11.30
2018-10-15T21:24:53.759Z,11.15
2018-10-15T21:27:21.904Z,11.13
2018-10-15T21:29:51.029Z,11.09
2018-10-15T21:32:19.255Z,11.15
2018-10-15T21:34:47.599Z,11.18
2018-10-15T21:37:15.779Z,11.05
2018-10-15T21:39:44.076Z,10.98
2018-10-15T21:42:12.352Z,10.89
2018-10-15T21:44:47.384Z,10.83
2018-10-15T21:47:15.704Z,10.89
2018-10-15T21:49:44.107Z,10.94
2018-10-15T21:52:12.482Z,10.92
2018-10-15T21:54:40.889Z,10.89
2018-10-15T21:57:09.172Z,10.87
2018-10-15T22:02:37.808Z,10.78
2018-10-15T22:05:06.720Z,10.79
2018-10-15T22:07:34.820Z,10.69
2018-10-15T22:10:08.460Z,10.66
2018-10-15T22:12:36.994Z,10.64
2018-10-15T22:15:06.229Z,10.58
2018-10-15T22:17:34.392Z,10.57
2018-10-15T22:20:02.700Z,10.50
2018-10-15T22:22:30.979Z,10.48
2018-10-15T22:24:59.308Z,10.43
2018-10-15T22:27:27.548Z,10.47
2018-10-15T22:29:55.760Z,10.44
2018-10-15T22:32:24.377Z,10.36
2018-10-15T22:34:52.540Z,10.35
2018-10-15T22:37:20.695Z,10.29
2018-10-15T22:39:48.896Z,10.31
2018-10-15T22:42:17.058Z,10.23
2018-10-15T22:44:45.244Z,10.11
2018-10-15T22:47:13.490Z,10.08
2018-10-15T22:49:41.635Z,10.04
2018-10-15T22:52:09.991Z,9.99
2018-10-15T22:54:38.478Z,10.00
2018-10-15T22:57:06.744Z,9.97
2018-10-15T22:59:35.049Z,9.94
2018-10-15T23:02:03.404Z,9.99
2018-10-15T23:04:31.559Z,10.02
2018-10-15T23:06:59.687Z,9.98
2018-10-15T23:09:28.501Z,9.98
2018-10-15T23:11:56.632Z,9.98
2018-10-15T23:14:25.245Z,10.15
2018-10-15T23:16:53.479Z,10.24
2018-10-15T23:19:21.653Z,10.10
2018-10-15T23:21:49.859Z,10.02
2018-10-15T23:24:18.055Z,9.96
2018-10-15T23:26:46.261Z,10.03
2018-10-15T23:29:14.430Z,9.92
2018-10-15T23:31:42.785Z,9.69
2018-10-15T23:34:10.928Z,9.58
2018-10-15T23:36:39.078Z,9.56
2018-10-15T23:39:09.496Z,9.48
2018-10-15T23:41:37.646Z,9.56
2018-10-15T23:44:05.879Z,9.76
2018-10-15T23:46:34.112Z,9.76
2018-10-15T23:49:02.286Z,9.72
2018-10-15T23:51:30.452Z,9.63
2018-10-15T23:53:58.608Z,9.50
2018-10-15T23:56:26.936Z,9.48
2018-10-15T23:58:55.385Z,9.46
